sensor_id;sensor_type;location;lat;lon;timestamp;P1;durP1;ratioP1;P2;durP2;ratioP2
72427;SDS011;60419;48.880;18.036;2022-12-18T00:02:34;61.83;;;22.17;;
72427;SDS011;60419;48.880;18.036;2022-12-18T00:05:20;65.28;;;26.13;;
72427;SDS011;60419;48.880;18.036;2022-12-18T00:08:05;65.70;;;25.80;;
72427;SDS011;60419;48.880;18.036;2022-12-18T00:10:50;76.07;;;29.27;;
72427;SDS011;60419;48.880;18.036;2022-12-18T00:13:36;57.03;;;23.80;;
72427;SDS011;60419;48.880;18.036;2022-12-18T00:16:23;77.72;;;27.95;;
72427;SDS011;60419;48.880;18.036;2022-12-18T00:19:09;60.40;;;23.33;;
72427;SDS011;60419;48.880;18.036;2022-12-18T00:21:55;69.45;;;26.60;;
72427;SDS011;60419;48.880;18.036;2022-12-18T00:24:40;71.55;;;27.38;;
72427;SDS011;60419;48.880;18.036;2022-12-18T00:27:26;50.03;;;22.00;;
72427;SDS011;60419;48.880;18.036;2022-12-18T00:30:11;52.13;;;19.95;;
72427;SDS011;60419;48.880;18.036;2022-12-18T00:32:57;63.70;;;24.83;;
72427;SDS011;60419;48.880;18.036;2022-12-18T00:35:42;69.68;;;24.83;;
72427;SDS011;60419;48.880;18.036;2022-12-18T00:38:28;77.75;;;28.00;;
72427;SDS011;60419;48.880;18.036;2022-12-18T00:41:14;55.33;;;23.05;;
72427;SDS011;60419;48.880;18.036;2022-12-18T00:44:23;51.20;;;19.40;;
72427;SDS011;60419;48.880;18.036;2022-12-18T00:47:08;62.45;;;25.45;;
72427;SDS011;60419;48.880;18.036;2022-12-18T00:49:54;72.28;;;28.23;;
72427;SDS011;60419;48.880;18.036;2022-12-18T00:52:39;53.63;;;18.85;;
72427;SDS011;60419;48.880;18.036;2022-12-18T00:55:25;60.17;;;24.17;;
72427;SDS011;60419;48.880;18.036;2022-12-18T00:58:10;69.00;;;28.20;;
72427;SDS011;60419;48.880;18.036;2022-12-18T01:00:57;59.70;;;21.75;;
72427;SDS011;60419;48.880;18.036;2022-12-18T01:03:43;61.78;;;25.90;;
72427;SDS011;60419;48.880;18.036;2022-12-18T01:06:30;74.28;;;26.95;;
72427;SDS011;60419;48.880;18.036;2022-12-18T01:09:15;80.72;;;30.10;;
72427;SDS011;60419;48.880;18.036;2022-12-18T01:12:01;68.63;;;26.27;;
72427;SDS011;60419;48.880;18.036;2022-12-18T01:14:46;49.83;;;17.23;;
72427;SDS011;60419;48.880;18.036;2022-12-18T01:17:32;55.13;;;20.58;;
72427;SDS011;60419;48.880;18.036;2022-12-18T01:20:18;67.32;;;23.75;;
72427;SDS011;60419;48.880;18.036;2022-12-18T01:23:03;63.72;;;25.63;;
72427;SDS011;60419;48.880;18.036;2022-12-18T01:25:48;67.35;;;25.15;;
72427;SDS011;60419;48.880;18.036;2022-12-18T01:28:34;44.58;;;17.52;;
72427;SDS011;60419;48.880;18.036;2022-12-18T01:31:24;46.60;;;20.70;;
72427;SDS011;60419;48.880;18.036;2022-12-18T01:34:11;61.70;;;24.40;;
72427;SDS011;60419;48.880;18.036;2022-12-18T01:36:58;65.85;;;25.88;;
72427;SDS011;60419;48.880;18.036;2022-12-18T01:39:43;53.60;;;20.88;;
72427;SDS011;60419;48.880;18.036;2022-12-18T01:42:28;73.07;;;27.05;;
72427;SDS011;60419;48.880;18.036;2022-12-18T01:48:00;56.58;;;20.25;;
72427;SDS011;60419;48.880;18.036;2022-12-18T01:50:48;77.07;;;27.95;;
72427;SDS011;60419;48.880;18.036;2022-12-18T01:53:35;69.80;;;26.50;;
72427;SDS011;60419;48.880;18.036;2022-12-18T01:56:22;71.57;;;24.83;;
72427;SDS011;60419;48.880;18.036;2022-12-18T01:59:08;64.97;;;25.90;;
72427;SDS011;60419;48.880;18.036;2022-12-18T02:01:56;77.97;;;28.15;;
72427;SDS011;60419;48.880;18.036;2022-12-18T02:04:42;76.22;;;28.02;;
72427;SDS011;60419;48.880;18.036;2022-12-18T02:28:30;69.07;;;26.70;;
72427;SDS011;60419;48.880;18.036;2022-12-18T02:31:20;64.13;;;23.58;;
72427;SDS011;60419;48.880;18.036;2022-12-18T02:34:08;73.13;;;29.75;;
72427;SDS011;60419;48.880;18.036;2022-12-18T02:36:56;78.72;;;30.35;;
72427;SDS011;60419;48.880;18.036;2022-12-18T02:39:43;82.35;;;32.63;;
72427;SDS011;60419;48.880;18.036;2022-12-18T02:42:32;79.38;;;30.25;;
72427;SDS011;60419;48.880;18.036;2022-12-18T02:45:18;75.78;;;28.48;;
72427;SDS011;60419;48.880;18.036;2022-12-18T02:48:03;72.80;;;30.13;;
72427;SDS011;60419;48.880;18.036;2022-12-18T02:50:52;70.47;;;28.98;;
72427;SDS011;60419;48.880;18.036;2022-12-18T02:53:46;69.60;;;27.20;;
72427;SDS011;60419;48.880;18.036;2022-12-18T02:56:44;76.28;;;28.50;;
72427;SDS011;60419;48.880;18.036;2022-12-18T02:59:36;65.28;;;26.55;;
72427;SDS011;60419;48.880;18.036;2022-12-18T03:02:36;69.32;;;26.33;;
72427;SDS011;60419;48.880;18.036;2022-12-18T03:05:41;67.95;;;26.83;;
72427;SDS011;60419;48.880;18.036;2022-12-18T03:08:39;69.88;;;25.77;;
72427;SDS011;60419;48.880;18.036;2022-12-18T03:11:29;65.65;;;24.98;;
72427;SDS011;60419;48.880;18.036;2022-12-18T03:14:36;68.90;;;27.10;;
72427;SDS011;60419;48.880;18.036;2022-12-18T03:17:23;68.85;;;27.58;;
72427;SDS011;60419;48.880;18.036;2022-12-18T03:20:13;65.45;;;26.65;;
72427;SDS011;60419;48.880;18.036;2022-12-18T03:23:09;69.00;;;26.53;;
72427;SDS011;60419;48.880;18.036;2022-12-18T03:25:59;67.53;;;26.45;;
72427;SDS011;60419;48.880;18.036;2022-12-18T03:28:52;73.50;;;27.85;;
72427;SDS011;60419;48.880;18.036;2022-12-18T03:31:45;78.50;;;30.35;;
72427;SDS011;60419;48.880;18.036;2022-12-18T03:34:37;82.53;;;32.40;;
72427;SDS011;60419;48.880;18.036;2022-12-18T03:37:24;72.13;;;28.13;;
72427;SDS011;60419;48.880;18.036;2022-12-18T03:40:10;76.22;;;29.77;;
72427;SDS011;60419;48.880;18.036;2022-12-18T03:42:58;75.90;;;29.33;;
72427;SDS011;60419;48.880;18.036;2022-12-18T03:46:02;74.25;;;27.92;;
72427;SDS011;60419;48.880;18.036;2022-12-18T03:48:56;80.20;;;29.63;;
72427;SDS011;60419;48.880;18.036;2022-12-18T03:52:08;71.35;;;28.25;;
72427;SDS011;60419;48.880;18.036;2022-12-18T03:54:58;70.95;;;28.80;;
72427;SDS011;60419;48.880;18.036;2022-12-18T03:57:46;83.43;;;30.50;;
72427;SDS011;60419;48.880;18.036;2022-12-18T04:00:33;66.78;;;26.55;;
72427;SDS011;60419;48.880;18.036;2022-12-18T04:03:20;67.45;;;28.77;;
72427;SDS011;60419;48.880;18.036;2022-12-18T04:06:07;71.00;;;28.67;;
72427;SDS011;60419;48.880;18.036;2022-12-18T04:08:52;69.15;;;26.08;;
72427;SDS011;60419;48.880;18.036;2022-12-18T04:11:39;63.42;;;26.38;;
72427;SDS011;60419;48.880;18.036;2022-12-18T04:14:30;66.47;;;25.17;;
72427;SDS011;60419;48.880;18.036;2022-12-18T04:17:20;66.00;;;24.88;;
72427;SDS011;60419;48.880;18.036;2022-12-18T04:20:06;70.72;;;26.85;;
72427;SDS011;60419;48.880;18.036;2022-12-18T04:22:52;66.15;;;24.52;;
72427;SDS011;60419;48.880;18.036;2022-12-18T04:25:37;66.03;;;24.55;;
72427;SDS011;60419;48.880;18.036;2022-12-18T04:28:22;63.95;;;24.60;;
72427;SDS011;60419;48.880;18.036;2022-12-18T04:31:08;72.00;;;25.13;;
72427;SDS011;60419;48.880;18.036;2022-12-18T04:33:53;70.93;;;26.30;;
72427;SDS011;60419;48.880;18.036;2022-12-18T04:36:38;72.38;;;26.75;;
72427;SDS011;60419;48.880;18.036;2022-12-18T04:39:24;65.45;;;23.88;;
72427;SDS011;60419;48.880;18.036;2022-12-18T04:42:09;68.72;;;26.88;;
72427;SDS011;60419;48.880;18.036;2022-12-18T04:44:54;74.18;;;26.25;;
72427;SDS011;60419;48.880;18.036;2022-12-18T04:47:40;62.38;;;26.60;;
72427;SDS011;60419;48.880;18.036;2022-12-18T04:50:25;73.90;;;27.85;;
72427;SDS011;60419;48.880;18.036;2022-12-18T04:53:11;74.05;;;26.85;;
72427;SDS011;60419;48.880;18.036;2022-12-18T04:56:07;67.60;;;25.60;;
72427;SDS011;60419;48.880;18.036;2022-12-18T04:58:57;50.60;;;21.02;;
72427;SDS011;60419;48.880;18.036;2022-12-18T05:01:43;66.70;;;25.48;;
72427;SDS011;60419;48.880;18.036;2022-12-18T05:04:28;62.83;;;23.25;;
72427;SDS011;60419;48.880;18.036;2022-12-18T05:07:13;58.40;;;23.98;;
72427;SDS011;60419;48.880;18.036;2022-12-18T05:09:59;68.78;;;24.30;;
72427;SDS011;60419;48.880;18.036;2022-12-18T05:12:44;60.30;;;25.45;;
72427;SDS011;60419;48.880;18.036;2022-12-18T05:15:50;59.10;;;24.40;;
72427;SDS011;60419;48.880;18.036;2022-12-18T05:18:37;56.95;;;22.30;;
72427;SDS011;60419;48.880;18.036;2022-12-18T05:21:23;62.15;;;24.15;;
72427;SDS011;60419;48.880;18.036;2022-12-18T05:24:08;59.40;;;22.98;;
72427;SDS011;60419;48.880;18.036;2022-12-18T05:26:54;48.95;;;18.75;;
72427;SDS011;60419;48.880;18.036;2022-12-18T05:29:39;42.88;;;17.30;;
72427;SDS011;60419;48.880;18.036;2022-12-18T05:32:24;67.50;;;26.67;;
72427;SDS011;60419;48.880;18.036;2022-12-18T05:35:10;62.17;;;26.23;;
72427;SDS011;60419;48.880;18.036;2022-12-18T05:37:56;52.55;;;20.33;;
72427;SDS011;60419;48.880;18.036;2022-12-18T05:40:42;54.45;;;19.85;;
72427;SDS011;60419;48.880;18.036;2022-12-18T05:43:29;64.78;;;25.83;;
72427;SDS011;60419;48.880;18.036;2022-12-18T05:46:15;67.30;;;22.85;;
72427;SDS011;60419;48.880;18.036;2022-12-18T05:49:02;72.10;;;29.98;;
72427;SDS011;60419;48.880;18.036;2022-12-18T05:51:47;70.78;;;26.73;;
72427;SDS011;60419;48.880;18.036;2022-12-18T05:54:33;41.40;;;20.05;;
72427;SDS011;60419;48.880;18.036;2022-12-18T05:57:18;46.45;;;19.00;;
72427;SDS011;60419;48.880;18.036;2022-12-18T06:00:04;58.63;;;24.83;;
72427;SDS011;60419;48.880;18.036;2022-12-18T06:02:49;72.15;;;25.38;;
72427;SDS011;60419;48.880;18.036;2022-12-18T06:05:35;57.08;;;20.50;;
72427;SDS011;60419;48.880;18.036;2022-12-18T06:08:22;49.92;;;21.67;;
72427;SDS011;60419;48.880;18.036;2022-12-18T06:11:07;37.00;;;15.80;;
72427;SDS011;60419;48.880;18.036;2022-12-18T06:13:53;63.17;;;23.73;;
72427;SDS011;60419;48.880;18.036;2022-12-18T06:16:39;52.38;;;20.00;;
72427;SDS011;60419;48.880;18.036;2022-12-18T06:19:25;52.05;;;21.05;;
72427;SDS011;60419;48.880;18.036;2022-12-18T06:22:10;56.95;;;20.90;;
72427;SDS011;60419;48.880;18.036;2022-12-18T06:24:55;62.10;;;23.55;;
72427;SDS011;60419;48.880;18.036;2022-12-18T06:27:41;72.95;;;23.67;;
72427;SDS011;60419;48.880;18.036;2022-12-18T06:30:27;71.00;;;23.58;;
72427;SDS011;60419;48.880;18.036;2022-12-18T06:33:12;62.55;;;22.85;;
72427;SDS011;60419;48.880;18.036;2022-12-18T06:36:01;64.07;;;24.70;;
72427;SDS011;60419;48.880;18.036;2022-12-18T06:41:34;57.08;;;18.75;;
72427;SDS011;60419;48.880;18.036;2022-12-18T06:44:19;58.92;;;21.45;;
72427;SDS011;60419;48.880;18.036;2022-12-18T06:47:05;66.35;;;23.60;;
72427;SDS011;60419;48.880;18.036;2022-12-18T06:49:50;64.90;;;22.60;;
72427;SDS011;60419;48.880;18.036;2022-12-18T06:52:35;62.78;;;24.30;;
72427;SDS011;60419;48.880;18.036;2022-12-18T06:55:21;60.25;;;23.88;;
72427;SDS011;60419;48.880;18.036;2022-12-18T06:58:07;60.72;;;23.48;;
72427;SDS011;60419;48.880;18.036;2022-12-18T07:00:52;57.85;;;23.42;;
72427;SDS011;60419;48.880;18.036;2022-12-18T07:03:38;64.32;;;23.30;;
72427;SDS011;60419;48.880;18.036;2022-12-18T07:06:25;58.80;;;23.80;;
72427;SDS011;60419;48.880;18.036;2022-12-18T07:09:11;58.88;;;24.23;;
72427;SDS011;60419;48.880;18.036;2022-12-18T07:11:56;65.35;;;23.63;;
72427;SDS011;60419;48.880;18.036;2022-12-18T07:14:41;66.93;;;23.83;;
72427;SDS011;60419;48.880;18.036;2022-12-18T07:17:27;65.90;;;24.95;;
72427;SDS011;60419;48.880;18.036;2022-12-18T07:20:12;67.53;;;26.58;;
72427;SDS011;60419;48.880;18.036;2022-12-18T07:22:58;71.13;;;25.88;;
72427;SDS011;60419;48.880;18.036;2022-12-18T07:25:43;70.15;;;26.73;;
72427;SDS011;60419;48.880;18.036;2022-12-18T07:28:28;67.65;;;25.58;;
72427;SDS011;60419;48.880;18.036;2022-12-18T07:31:15;68.68;;;27.08;;
72427;SDS011;60419;48.880;18.036;2022-12-18T07:34:02;62.50;;;24.80;;
72427;SDS011;60419;48.880;18.036;2022-12-18T07:36:48;72.15;;;27.90;;
72427;SDS011;60419;48.880;18.036;2022-12-18T07:39:33;73.95;;;25.40;;
72427;SDS011;60419;48.880;18.036;2022-12-18T07:42:18;67.43;;;25.20;;
72427;SDS011;60419;48.880;18.036;2022-12-18T07:45:16;62.78;;;24.27;;
72427;SDS011;60419;48.880;18.036;2022-12-18T07:48:01;61.70;;;26.42;;
72427;SDS011;60419;48.880;18.036;2022-12-18T07:50:47;59.58;;;25.02;;
72427;SDS011;60419;48.880;18.036;2022-12-18T07:53:33;65.63;;;24.35;;
72427;SDS011;60419;48.880;18.036;2022-12-18T07:56:19;61.13;;;23.58;;
72427;SDS011;60419;48.880;18.036;2022-12-18T07:59:05;65.78;;;24.35;;
72427;SDS011;60419;48.880;18.036;2022-12-18T08:01:50;65.97;;;24.80;;
72427;SDS011;60419;48.880;18.036;2022-12-18T08:04:36;67.57;;;25.35;;
72427;SDS011;60419;48.880;18.036;2022-12-18T08:07:21;66.40;;;25.13;;
72427;SDS011;60419;48.880;18.036;2022-12-18T08:10:07;60.28;;;24.27;;
72427;SDS011;60419;48.880;18.036;2022-12-18T08:12:52;65.45;;;23.40;;
72427;SDS011;60419;48.880;18.036;2022-12-18T08:15:38;64.47;;;24.38;;
72427;SDS011;60419;48.880;18.036;2022-12-18T08:18:23;67.40;;;26.23;;
72427;SDS011;60419;48.880;18.036;2022-12-18T08:21:15;70.65;;;26.95;;
72427;SDS011;60419;48.880;18.036;2022-12-18T08:24:08;72.90;;;26.77;;
72427;SDS011;60419;48.880;18.036;2022-12-18T08:26:54;59.83;;;23.42;;
72427;SDS011;60419;48.880;18.036;2022-12-18T08:29:42;67.63;;;26.00;;
72427;SDS011;60419;48.880;18.036;2022-12-18T08:32:27;54.58;;;20.70;;
72427;SDS011;60419;48.880;18.036;2022-12-18T08:35:13;63.83;;;23.25;;
72427;SDS011;60419;48.880;18.036;2022-12-18T08:37:58;61.72;;;23.48;;
72427;SDS011;60419;48.880;18.036;2022-12-18T08:40:44;58.10;;;22.25;;
72427;SDS011;60419;48.880;18.036;2022-12-18T08:43:29;60.38;;;21.27;;
72427;SDS011;60419;48.880;18.036;2022-12-18T08:46:37;57.30;;;20.30;;
72427;SDS011;60419;48.880;18.036;2022-12-18T08:49:24;53.30;;;20.90;;
72427;SDS011;60419;48.880;18.036;2022-12-18T08:52:10;65.25;;;23.65;;
72427;SDS011;60419;48.880;18.036;2022-12-18T08:54:56;54.63;;;21.40;;
72427;SDS011;60419;48.880;18.036;2022-12-18T08:57:41;61.60;;;25.23;;
72427;SDS011;60419;48.880;18.036;2022-12-18T09:00:27;59.92;;;22.40;;
72427;SDS011;60419;48.880;18.036;2022-12-18T09:03:16;55.47;;;22.40;;
72427;SDS011;60419;48.880;18.036;2022-12-18T09:06:03;58.58;;;24.75;;
72427;SDS011;60419;48.880;18.036;2022-12-18T09:08:49;58.97;;;22.73;;
72427;SDS011;60419;48.880;18.036;2022-12-18T09:11:35;63.95;;;22.77;;
72427;SDS011;60419;48.880;18.036;2022-12-18T09:14:20;56.17;;;22.48;;
72427;SDS011;60419;48.880;18.036;2022-12-18T09:17:05;60.15;;;21.40;;
72427;SDS011;60419;48.880;18.036;2022-12-18T09:19:51;55.30;;;22.27;;
72427;SDS011;60419;48.880;18.036;2022-12-18T09:22:36;58.53;;;24.00;;
72427;SDS011;60419;48.880;18.036;2022-12-18T09:25:21;59.33;;;23.98;;
72427;SDS011;60419;48.880;18.036;2022-12-18T09:28:13;63.75;;;23.98;;
72427;SDS011;60419;48.880;18.036;2022-12-18T09:31:04;56.03;;;23.05;;
72427;SDS011;60419;48.880;18.036;2022-12-18T09:33:52;58.72;;;22.92;;
72427;SDS011;60419;48.880;18.036;2022-12-18T09:36:40;65.90;;;23.85;;
72427;SDS011;60419;48.880;18.036;2022-12-18T09:39:25;47.60;;;18.67;;
72427;SDS011;60419;48.880;18.036;2022-12-18T09:42:21;58.25;;;22.67;;
72427;SDS011;60419;48.880;18.036;2022-12-18T09:45:07;56.78;;;22.42;;
72427;SDS011;60419;48.880;18.036;2022-12-18T09:48:00;59.40;;;22.83;;
72427;SDS011;60419;48.880;18.036;2022-12-18T09:50:46;59.88;;;21.80;;
72427;SDS011;60419;48.880;18.036;2022-12-18T09:53:34;64.13;;;23.50;;
72427;SDS011;60419;48.880;18.036;2022-12-18T09:56:25;65.15;;;23.17;;
72427;SDS011;60419;48.880;18.036;2022-12-18T09:59:21;55.85;;;19.08;;
72427;SDS011;60419;48.880;18.036;2022-12-18T10:06:04;54.80;;;23.70;;
72427;SDS011;60419;48.880;18.036;2022-12-18T10:08:39;61.15;;;23.63;;
72427;SDS011;60419;48.880;18.036;2022-12-18T10:20:33;62.60;;;23.52;;
72427;SDS011;60419;48.880;18.036;2022-12-18T10:26:10;62.03;;;23.45;;
72427;SDS011;60419;48.880;18.036;2022-12-18T10:28:57;53.58;;;19.92;;
72427;SDS011;60419;48.880;18.036;2022-12-18T10:31:44;54.33;;;20.35;;
72427;SDS011;60419;48.880;18.036;2022-12-18T10:34:29;58.03;;;21.02;;
72427;SDS011;60419;48.880;18.036;2022-12-18T10:37:18;49.10;;;20.17;;
72427;SDS011;60419;48.880;18.036;2022-12-18T10:43:11;60.45;;;22.73;;
72427;SDS011;60419;48.880;18.036;2022-12-18T10:48:54;61.70;;;22.05;;
72427;SDS011;60419;48.880;18.036;2022-12-18T10:51:41;47.78;;;19.60;;
72427;SDS011;60419;48.880;18.036;2022-12-18T10:54:27;59.17;;;23.02;;
72427;SDS011;60419;48.880;18.036;2022-12-18T10:57:15;57.05;;;22.13;;
72427;SDS011;60419;48.880;18.036;2022-12-18T11:00:28;62.63;;;23.35;;
72427;SDS011;60419;48.880;18.036;2022-12-18T11:03:37;64.65;;;22.73;;
72427;SDS011;60419;48.880;18.036;2022-12-18T11:06:23;56.88;;;23.58;;
72427;SDS011;60419;48.880;18.036;2022-12-18T11:09:20;47.88;;;19.70;;
72427;SDS011;60419;48.880;18.036;2022-12-18T11:12:17;54.10;;;18.77;;
72427;SDS011;60419;48.880;18.036;2022-12-18T11:15:04;70.15;;;24.02;;
72427;SDS011;60419;48.880;18.036;2022-12-18T11:17:51;49.55;;;18.25;;
72427;SDS011;60419;48.880;18.036;2022-12-18T11:20:37;59.38;;;21.92;;
72427;SDS011;60419;48.880;18.036;2022-12-18T11:23:24;66.38;;;24.40;;
72427;SDS011;60419;48.880;18.036;2022-12-18T11:26:10;58.28;;;22.65;;
72427;SDS011;60419;48.880;18.036;2022-12-18T11:29:09;41.05;;;17.05;;
72427;SDS011;60419;48.880;18.036;2022-12-18T11:35:10;50.40;;;18.92;;
72427;SDS011;60419;48.880;18.036;2022-12-18T11:41:15;59.10;;;22.70;;
72427;SDS011;60419;48.880;18.036;2022-12-18T11:47:57;61.42;;;21.83;;
72427;SDS011;60419;48.880;18.036;2022-12-18T11:50:50;56.90;;;22.48;;
72427;SDS011;60419;48.880;18.036;2022-12-18T11:53:38;62.13;;;23.40;;
72427;SDS011;60419;48.880;18.036;2022-12-18T11:56:32;56.42;;;20.13;;
72427;SDS011;60419;48.880;18.036;2022-12-18T11:59:25;57.80;;;20.98;;
72427;SDS011;60419;48.880;18.036;2022-12-18T12:12:30;59.40;;;22.38;;
72427;SDS011;60419;48.880;18.036;2022-12-18T12:14:53;54.80;;;23.17;;
72427;SDS011;60419;48.880;18.036;2022-12-18T12:30:10;49.42;;;18.38;;
72427;SDS011;60419;48.880;18.036;2022-12-18T12:33:19;53.00;;;20.48;;
72427;SDS011;60419;48.880;18.036;2022-12-18T12:36:27;55.15;;;21.92;;
72427;SDS011;60419;48.880;18.036;2022-12-18T12:39:18;50.20;;;20.63;;
72427;SDS011;60419;48.880;18.036;2022-12-18T12:42:11;50.42;;;19.45;;
72427;SDS011;60419;48.880;18.036;2022-12-18T12:45:38;57.53;;;20.35;;
72427;SDS011;60419;48.880;18.036;2022-12-18T12:51:37;55.92;;;20.25;;
72427;SDS011;60419;48.880;18.036;2022-12-18T12:54:26;51.75;;;20.13;;
72427;SDS011;60419;48.880;18.036;2022-12-18T13:00:44;40.70;;;18.60;;
72427;SDS011;60419;48.880;18.036;2022-12-18T13:06:56;48.42;;;18.38;;
72427;SDS011;60419;48.880;18.036;2022-12-18T13:13:11;57.55;;;21.65;;
72427;SDS011;60419;48.880;18.036;2022-12-18T13:16:05;55.78;;;20.70;;
72427;SDS011;60419;48.880;18.036;2022-12-18T13:18:56;49.20;;;20.42;;
72427;SDS011;60419;48.880;18.036;2022-12-18T13:24:37;58.78;;;20.35;;
72427;SDS011;60419;48.880;18.036;2022-12-18T13:39:20;54.40;;;20.52;;
72427;SDS011;60419;48.880;18.036;2022-12-18T13:44:54;60.75;;;22.33;;
72427;SDS011;60419;48.880;18.036;2022-12-18T13:47:40;57.10;;;21.80;;
72427;SDS011;60419;48.880;18.036;2022-12-18T13:50:28;57.35;;;22.75;;
72427;SDS011;60419;48.880;18.036;2022-12-18T13:53:27;52.63;;;22.00;;
72427;SDS011;60419;48.880;18.036;2022-12-18T13:56:16;57.75;;;23.60;;
72427;SDS011;60419;48.880;18.036;2022-12-18T13:59:17;52.25;;;20.35;;
72427;SDS011;60419;48.880;18.036;2022-12-18T14:02:14;54.17;;;21.20;;
72427;SDS011;60419;48.880;18.036;2022-12-18T14:05:20;55.83;;;21.58;;
72427;SDS011;60419;48.880;18.036;2022-12-18T14:08:11;55.00;;;18.60;;
72427;SDS011;60419;48.880;18.036;2022-12-18T14:10:59;57.10;;;21.65;;
72427;SDS011;60419;48.880;18.036;2022-12-18T14:13:46;58.47;;;23.33;;
72427;SDS011;60419;48.880;18.036;2022-12-18T14:16:32;61.53;;;23.08;;
72427;SDS011;60419;48.880;18.036;2022-12-18T14:19:19;62.08;;;23.98;;
72427;SDS011;60419;48.880;18.036;2022-12-18T14:22:04;59.33;;;22.48;;
72427;SDS011;60419;48.880;18.036;2022-12-18T14:25:52;65.75;;;25.38;;
72427;SDS011;60419;48.880;18.036;2022-12-18T14:28:42;63.38;;;27.17;;
72427;SDS011;60419;48.880;18.036;2022-12-18T14:34:16;63.72;;;24.30;;
72427;SDS011;60419;48.880;18.036;2022-12-18T14:37:02;60.67;;;23.02;;
72427;SDS011;60419;48.880;18.036;2022-12-18T14:39:58;64.10;;;25.52;;
72427;SDS011;60419;48.880;18.036;2022-12-18T14:42:45;69.53;;;26.17;;
72427;SDS011;60419;48.880;18.036;2022-12-18T14:45:34;62.90;;;23.73;;
72427;SDS011;60419;48.880;18.036;2022-12-18T14:48:35;65.55;;;23.60;;
72427;SDS011;60419;48.880;18.036;2022-12-18T14:51:21;56.83;;;22.80;;
72427;SDS011;60419;48.880;18.036;2022-12-18T14:54:14;61.45;;;22.05;;
72427;SDS011;60419;48.880;18.036;2022-12-18T15:00:05;62.38;;;23.60;;
72427;SDS011;60419;48.880;18.036;2022-12-18T15:02:59;64.82;;;22.80;;
72427;SDS011;60419;48.880;18.036;2022-12-18T15:05:45;61.70;;;25.15;;
72427;SDS011;60419;48.880;18.036;2022-12-18T15:08:34;62.65;;;24.17;;
72427;SDS011;60419;48.880;18.036;2022-12-18T15:11:25;47.28;;;20.88;;
72427;SDS011;60419;48.880;18.036;2022-12-18T15:14:41;71.43;;;26.85;;
72427;SDS011;60419;48.880;18.036;2022-12-18T15:17:26;64.03;;;25.83;;
72427;SDS011;60419;48.880;18.036;2022-12-18T15:20:12;70.95;;;27.15;;
72427;SDS011;60419;48.880;18.036;2022-12-18T15:22:58;69.68;;;25.95;;
72427;SDS011;60419;48.880;18.036;2022-12-18T15:25:44;66.68;;;25.75;;
72427;SDS011;60419;48.880;18.036;2022-12-18T15:31:32;63.78;;;25.90;;
72427;SDS011;60419;48.880;18.036;2022-12-18T15:34:21;62.40;;;25.40;;
72427;SDS011;60419;48.880;18.036;2022-12-18T15:37:07;65.03;;;25.65;;
72427;SDS011;60419;48.880;18.036;2022-12-18T15:39:53;66.47;;;27.02;;
72427;SDS011;60419;48.880;18.036;2022-12-18T15:42:38;61.47;;;25.92;;
72427;SDS011;60419;48.880;18.036;2022-12-18T15:45:42;67.90;;;27.30;;
72427;SDS011;60419;48.880;18.036;2022-12-18T15:48:27;70.05;;;27.42;;
72427;SDS011;60419;48.880;18.036;2022-12-18T15:51:14;68.78;;;26.48;;
72427;SDS011;60419;48.880;18.036;2022-12-18T15:54:04;78.10;;;30.35;;
72427;SDS011;60419;48.880;18.036;2022-12-18T15:56:54;82.82;;;34.03;;
72427;SDS011;60419;48.880;18.036;2022-12-18T15:59:58;78.20;;;30.70;;
72427;SDS011;60419;48.880;18.036;2022-12-18T16:02:43;82.07;;;27.40;;
72427;SDS011;60419;48.880;18.036;2022-12-18T16:05:29;119.30;;;41.00;;
72427;SDS011;60419;48.880;18.036;2022-12-18T16:08:14;93.13;;;39.97;;
72427;SDS011;60419;48.880;18.036;2022-12-18T16:11:00;98.90;;;40.25;;
72427;SDS011;60419;48.880;18.036;2022-12-18T16:13:46;105.40;;;44.40;;
72427;SDS011;60419;48.880;18.036;2022-12-18T16:16:31;79.78;;;31.88;;
72427;SDS011;60419;48.880;18.036;2022-12-18T16:19:17;78.68;;;32.22;;
72427;SDS011;60419;48.880;18.036;2022-12-18T16:22:03;77.80;;;31.95;;
72427;SDS011;60419;48.880;18.036;2022-12-18T16:24:50;94.03;;;34.80;;
72427;SDS011;60419;48.880;18.036;2022-12-18T16:27:36;89.65;;;34.63;;
72427;SDS011;60419;48.880;18.036;2022-12-18T16:30:23;77.35;;;29.02;;
72427;SDS011;60419;48.880;18.036;2022-12-18T16:35:58;72.13;;;27.20;;
72427;SDS011;60419;48.880;18.036;2022-12-18T16:38:43;78.63;;;29.70;;
72427;SDS011;60419;48.880;18.036;2022-12-18T16:41:29;84.18;;;31.58;;
72427;SDS011;60419;48.880;18.036;2022-12-18T16:44:17;78.60;;;26.83;;
72427;SDS011;60419;48.880;18.036;2022-12-18T16:47:03;73.43;;;28.67;;
72427;SDS011;60419;48.880;18.036;2022-12-18T16:49:49;73.15;;;29.55;;
72427;SDS011;60419;48.880;18.036;2022-12-18T16:52:36;82.97;;;30.17;;
72427;SDS011;60419;48.880;18.036;2022-12-18T16:55:22;68.68;;;29.15;;
72427;SDS011;60419;48.880;18.036;2022-12-18T16:58:07;74.90;;;27.00;;
72427;SDS011;60419;48.880;18.036;2022-12-18T17:00:53;72.30;;;27.25;;
72427;SDS011;60419;48.880;18.036;2022-12-18T17:03:38;72.50;;;28.15;;
72427;SDS011;60419;48.880;18.036;2022-12-18T17:06:24;72.68;;;29.58;;
72427;SDS011;60419;48.880;18.036;2022-12-18T17:09:11;74.60;;;28.63;;
72427;SDS011;60419;48.880;18.036;2022-12-18T17:11:59;77.07;;;28.40;;
72427;SDS011;60419;48.880;18.036;2022-12-18T17:14:45;85.35;;;29.20;;
72427;SDS011;60419;48.880;18.036;2022-12-18T17:17:30;81.68;;;30.30;;
72427;SDS011;60419;48.880;18.036;2022-12-18T17:20:15;78.50;;;30.70;;
72427;SDS011;60419;48.880;18.036;2022-12-18T17:23:01;71.57;;;29.33;;
72427;SDS011;60419;48.880;18.036;2022-12-18T17:25:46;81.72;;;29.88;;
72427;SDS011;60419;48.880;18.036;2022-12-18T17:28:31;76.88;;;29.42;;
72427;SDS011;60419;48.880;18.036;2022-12-18T17:31:21;77.57;;;30.92;;
72427;SDS011;60419;48.880;18.036;2022-12-18T17:34:09;76.67;;;29.93;;
72427;SDS011;60419;48.880;18.036;2022-12-18T17:36:55;80.30;;;31.25;;
72427;SDS011;60419;48.880;18.036;2022-12-18T17:39:41;67.63;;;27.48;;
72427;SDS011;60419;48.880;18.036;2022-12-18T17:42:26;79.80;;;31.45;;
72427;SDS011;60419;48.880;18.036;2022-12-18T17:45:11;74.65;;;28.52;;
72427;SDS011;60419;48.880;18.036;2022-12-18T17:47:57;70.95;;;28.33;;
72427;SDS011;60419;48.880;18.036;2022-12-18T17:50:42;79.38;;;29.65;;
72427;SDS011;60419;48.880;18.036;2022-12-18T17:53:28;79.38;;;29.42;;
72427;SDS011;60419;48.880;18.036;2022-12-18T17:56:15;79.32;;;30.52;;
72427;SDS011;60419;48.880;18.036;2022-12-18T17:59:01;93.57;;;37.25;;
72427;SDS011;60419;48.880;18.036;2022-12-18T18:01:47;91.50;;;34.33;;
72427;SDS011;60419;48.880;18.036;2022-12-18T18:04:32;89.78;;;37.13;;
72427;SDS011;60419;48.880;18.036;2022-12-18T18:07:18;99.07;;;39.22;;
72427;SDS011;60419;48.880;18.036;2022-12-18T18:10:03;91.22;;;37.22;;
72427;SDS011;60419;48.880;18.036;2022-12-18T18:12:49;90.32;;;36.00;;
72427;SDS011;60419;48.880;18.036;2022-12-18T18:15:56;85.72;;;37.70;;